sensor_id;sensor_type;location;lat;lon;timestamp;temperature;humidity
49489;SHT31;35382;51.484;11.476;2024-02-15T00:02:15;8.40;99.68
49489;SHT31;35382;51.484;11.476;2024-02-15T00:04:41;8.41;99.69
49489;SHT31;35382;51.484;11.476;2024-02-15T00:07:06;8.44;99.65
49489;SHT31;35382;51.484;11.476;2024-02-15T00:09:31;8.44;99.60
49489;SHT31;35382;51.484;11.476;2024-02-15T00:11:57;8.47;99.55
49489;SHT31;35382;51.484;11.476;2024-02-15T00:14:22;8.45;99.48
49489;SHT31;35382;51.484;11.476;2024-02-15T00:16:48;8.40;99.54
49489;SHT31;35382;51.484;11.476;2024-02-15T00:19:13;8.52;99.60
49489;SHT31;35382;51.484;11.476;2024-02-15T00:21:43;8.51;99.51
49489;SHT31;35382;51.484;11.476;2024-02-15T00:24:08;8.52;99.42
49489;SHT31;35382;51.484;11.476;2024-02-15T00:26:33;8.55;99.39
49489;SHT31;35382;51.484;11.476;2024-02-15T00:28:59;8.49;99.33
49489;SHT31;35382;51.484;11.476;2024-02-15T00:31:24;8.49;99.42
49489;SHT31;35382;51.484;11.476;2024-02-15T00:33:49;8.51;99.49
49489;SHT31;35382;51.484;11.476;2024-02-15T00:36:15;8.51;99.48
49489;SHT31;35382;51.484;11.476;2024-02-15T00:38:41;8.48;99.51
49489;SHT31;35382;51.484;11.476;2024-02-15T00:41:06;8.47;99.54
49489;SHT31;35382;51.484;11.476;2024-02-15T00:43:34;8.52;99.51
49489;SHT31;35382;51.484;11.476;2024-02-15T00:46:00;8.52;99.51
49489;SHT31;35382;51.484;11.476;2024-02-15T00:48:25;8.57;99.56
49489;SHT31;35382;51.484;11.476;2024-02-15T00:50:50;8.55;99.55
49489;SHT31;35382;51.484;11.476;2024-02-15T00:53:16;8.57;99.44
49489;SHT31;35382;51.484;11.476;2024-02-15T00:55:41;8.58;99.41
49489;SHT31;35382;51.484;11.476;2024-02-15T00:58:06;8.54;99.45
49489;SHT31;35382;51.484;11.476;2024-02-15T01:00:32;8.48;99.45
49489;SHT31;35382;51.484;11.476;2024-02-15T01:02:57;8.52;99.51
49489;SHT31;35382;51.484;11.476;2024-02-15T01:05:23;8.45;99.52
49489;SHT31;35382;51.484;11.476;2024-02-15T01:07:48;8.40;99.65
49489;SHT31;35382;51.484;11.476;2024-02-15T01:10:13;8.41;99.72
49489;SHT31;35382;51.484;11.476;2024-02-15T01:12:39;8.47;99.74
49489;SHT31;35382;51.484;11.476;2024-02-15T01:15:04;8.42;99.76
49489;SHT31;35382;51.484;11.476;2024-02-15T01:17:30;8.41;99.79
49489;SHT31;35382;51.484;11.476;2024-02-15T01:19:56;8.41;99.85
49489;SHT31;35382;51.484;11.476;2024-02-15T01:22:21;8.47;99.81
49489;SHT31;35382;51.484;11.476;2024-02-15T01:24:46;8.48;99.81
49489;SHT31;35382;51.484;11.476;2024-02-15T01:27:12;8.60;99.71
49489;SHT31;35382;51.484;11.476;2024-02-15T01:29:37;8.60;99.65
49489;SHT31;35382;51.484;11.476;2024-02-15T01:32:03;8.67;99.58
49489;SHT31;35382;51.484;11.476;2024-02-15T01:34:28;8.64;99.58
49489;SHT31;35382;51.484;11.476;2024-02-15T01:36:53;8.61;99.59
49489;SHT31;35382;51.484;11.476;2024-02-15T01:39:19;8.60;99.59
49489;SHT31;35382;51.484;11.476;2024-02-15T01:41:48;8.61;99.63
49489;SHT31;35382;51.484;11.476;2024-02-15T01:44:13;8.61;99.60
49489;SHT31;35382;51.484;11.476;2024-02-15T01:46:39;8.54;99.65
49489;SHT31;35382;51.484;11.476;2024-02-15T01:49:05;8.57;99.73
49489;SHT31;35382;51.484;11.476;2024-02-15T01:51:31;8.68;99.69
49489;SHT31;35382;51.484;11.476;2024-02-15T01:53:57;8.65;99.62
49489;SHT31;35382;51.484;11.476;2024-02-15T01:56:22;8.64;99.62
49489;SHT31;35382;51.484;11.476;2024-02-15T01:58:50;8.61;99.65
49489;SHT31;35382;51.484;11.476;2024-02-15T02:01:16;8.57;99.77
49489;SHT31;35382;51.484;11.476;2024-02-15T02:03:41;8.55;99.87
49489;SHT31;35382;51.484;11.476;2024-02-15T02:06:07;8.45;99.99
49489;SHT31;35382;51.484;11.476;2024-02-15T02:08:33;8.47;99.99
49489;SHT31;35382;51.484;11.476;2024-02-15T02:10:58;8.40;99.99
49489;SHT31;35382;51.484;11.476;2024-02-15T02:13:23;8.40;99.99
49489;SHT31;35382;51.484;11.476;2024-02-15T02:15:49;8.41;99.99
49489;SHT31;35382;51.484;11.476;2024-02-15T02:18:14;8.42;99.99
49489;SHT31;35382;51.484;11.476;2024-02-15T02:20:39;8.45;99.99
49489;SHT31;35382;51.484;11.476;2024-02-15T02:23:26;8.47;99.99
49489;SHT31;35382;51.484;11.476;2024-02-15T02:25:52;8.45;99.99
49489;SHT31;35382;51.484;11.476;2024-02-15T02:28:18;8.42;99.99
49489;SHT31;35382;51.484;11.476;2024-02-15T02:30:43;8.45;99.99
49489;SHT31;35382;51.484;11.476;2024-02-15T02:33:12;8.42;99.99
49489;SHT31;35382;51.484;11.476;2024-02-15T02:35:37;8.42;99.99
49489;SHT31;35382;51.484;11.476;2024-02-15T02:38:03;8.41;99.99
49489;SHT31;35382;51.484;11.476;2024-02-15T02:40:28;8.37;99.99
49489;SHT31;35382;51.484;11.476;2024-02-15T02:42:55;8.38;99.99
49489;SHT31;35382;51.484;11.476;2024-02-15T02:45:20;8.36;99.99
49489;SHT31;35382;51.484;11.476;2024-02-15T02:47:46;8.40;99.99
49489;SHT31;35382;51.484;11.476;2024-02-15T02:50:11;8.45;99.99
49489;SHT31;35382;51.484;11.476;2024-02-15T02:52:37;8.52;99.99
49489;SHT31;35382;51.484;11.476;2024-02-15T02:55:02;8.57;99.99
49489;SHT31;35382;51.484;11.476;2024-02-15T02:57:27;8.61;99.99
49489;SHT31;35382;51.484;11.476;2024-02-15T02:59:53;8.71;99.99
49489;SHT31;35382;51.484;11.476;2024-02-15T03:02:18;8.73;99.99
49489;SHT31;35382;51.484;11.476;2024-02-15T03:04:43;8.71;99.98
49489;SHT31;35382;51.484;11.476;2024-02-15T03:07:09;8.78;99.93
49489;SHT31;35382;51.484;11.476;2024-02-15T03:09:34;8.73;99.86
49489;SHT31;35382;51.484;11.476;2024-02-15T03:11:59;8.78;99.66
49489;SHT31;35382;51.484;11.476;2024-02-15T03:14:25;8.71;99.66
49489;SHT31;35382;51.484;11.476;2024-02-15T03:16:50;8.82;99.68
49489;SHT31;35382;51.484;11.476;2024-02-15T03:19:15;8.75;99.58
49489;SHT31;35382;51.484;11.476;2024-02-15T03:21:41;8.83;99.52
49489;SHT31;35382;51.484;11.476;2024-02-15T03:24:06;8.85;99.32
49489;SHT31;35382;51.484;11.476;2024-02-15T03:26:32;8.81;99.20
49489;SHT31;35382;51.484;11.476;2024-02-15T03:28:57;8.78;99.23
49489;SHT31;35382;51.484;11.476;2024-02-15T03:31:23;8.78;99.30
49489;SHT31;35382;51.484;11.476;2024-02-15T03:33:48;8.82;99.35
49489;SHT31;35382;51.484;11.476;2024-02-15T03:36:14;8.79;99.24
49489;SHT31;35382;51.484;11.476;2024-02-15T03:38:41;8.79;99.27
49489;SHT31;35382;51.484;11.476;2024-02-15T03:41:06;8.83;99.27
49489;SHT31;35382;51.484;11.476;2024-02-15T03:43:31;8.78;99.28
49489;SHT31;35382;51.484;11.476;2024-02-15T03:45:57;8.79;99.28
49489;SHT31;35382;51.484;11.476;2024-02-15T03:48:22;8.88;99.23
49489;SHT31;35382;51.484;11.476;2024-02-15T03:50:47;8.81;99.06
49489;SHT31;35382;51.484;11.476;2024-02-15T03:53:13;8.76;99.19
49489;SHT31;35382;51.484;11.476;2024-02-15T03:55:38;8.69;99.36
49489;SHT31;35382;51.484;11.476;2024-02-15T03:58:03;8.67;99.58
49489;SHT31;35382;51.484;11.476;2024-02-15T04:00:29;8.82;99.54
49489;SHT31;35382;51.484;11.476;2024-02-15T04:02:54;8.79;99.36
49489;SHT31;35382;51.484;11.476;2024-02-15T04:05:20;8.78;99.25
49489;SHT31;35382;51.484;11.476;2024-02-15T04:07:45;8.76;99.19
49489;SHT31;35382;51.484;11.476;2024-02-15T04:10:10;8.75;99.13
49489;SHT31;35382;51.484;11.476;2024-02-15T04:12:36;8.71;99.12
49489;SHT31;35382;51.484;11.476;2024-02-15T04:15:01;8.78;99.17
49489;SHT31;35382;51.484;11.476;2024-02-15T04:17:26;8.85;99.13
49489;SHT31;35382;51.484;11.476;2024-02-15T04:19:52;8.86;99.11
49489;SHT31;35382;51.484;11.476;2024-02-15T04:22:17;8.89;98.96
49489;SHT31;35382;51.484;11.476;2024-02-15T04:24:43;8.85;99.03
49489;SHT31;35382;51.484;11.476;2024-02-15T04:27:09;8.92;99.10
49489;SHT31;35382;51.484;11.476;2024-02-15T04:29:35;8.92;98.95
49489;SHT31;35382;51.484;11.476;2024-02-15T04:32:00;8.93;98.90
49489;SHT31;35382;51.484;11.476;2024-02-15T04:34:25;8.92;98.86
49489;SHT31;35382;51.484;11.476;2024-02-15T04:36:51;8.99;98.84
49489;SHT31;35382;51.484;11.476;2024-02-15T04:39:17;9.04;98.78
49489;SHT31;35382;51.484;11.476;2024-02-15T04:41:42;9.08;98.50
49489;SHT31;35382;51.484;11.476;2024-02-15T04:44:07;9.08;98.27
49489;SHT31;35382;51.484;11.476;2024-02-15T04:46:33;9.11;98.39
49489;SHT31;35382;51.484;11.476;2024-02-15T04:48:58;9.14;98.30
49489;SHT31;35382;51.484;11.476;2024-02-15T04:51:25;9.16;98.13
49489;SHT31;35382;51.484;11.476;2024-02-15T04:53:50;9.19;98.02
49489;SHT31;35382;51.484;11.476;2024-02-15T04:56:15;9.23;98.09
49489;SHT31;35382;51.484;11.476;2024-02-15T04:58:41;9.12;98.20
49489;SHT31;35382;51.484;11.476;2024-02-15T05:01:06;9.09;98.59
49489;SHT31;35382;51.484;11.476;2024-02-15T05:03:32;9.06;98.71
49489;SHT31;35382;51.484;11.476;2024-02-15T05:05:57;9.11;98.86
49489;SHT31;35382;51.484;11.476;2024-02-15T05:08:22;9.12;98.96
49489;SHT31;35382;51.484;11.476;2024-02-15T05:10:48;9.08;98.84
49489;SHT31;35382;51.484;11.476;2024-02-15T05:13:13;9.09;98.87
49489;SHT31;35382;51.484;11.476;2024-02-15T05:15:39;9.08;98.96
49489;SHT31;35382;51.484;11.476;2024-02-15T05:18:04;9.14;99.04
49489;SHT31;35382;51.484;11.476;2024-02-15T05:20:29;9.16;98.73
49489;SHT31;35382;51.484;11.476;2024-02-15T05:22:55;9.16;98.62
49489;SHT31;35382;51.484;11.476;2024-02-15T05:25:20;9.15;98.76
49489;SHT31;35382;51.484;11.476;2024-02-15T05:27:45;9.11;98.89
49489;SHT31;35382;51.484;11.476;2024-02-15T05:30:11;9.19;98.67
49489;SHT31;35382;51.484;11.476;2024-02-15T05:32:37;9.20;98.45
49489;SHT31;35382;51.484;11.476;2024-02-15T05:35:02;9.12;98.51
49489;SHT31;35382;51.484;11.476;2024-02-15T05:37:28;9.14;98.59
49489;SHT31;35382;51.484;11.476;2024-02-15T05:39:54;9.05;98.57
49489;SHT31;35382;51.484;11.476;2024-02-15T05:42:19;8.95;98.68
49489;SHT31;35382;51.484;11.476;2024-02-15T05:44:44;8.99;98.86
49489;SHT31;35382;51.484;11.476;2024-02-15T05:47:10;9.06;98.87
49489;SHT31;35382;51.484;11.476;2024-02-15T05:49:35;9.09;98.64
49489;SHT31;35382;51.484;11.476;2024-02-15T05:52:01;9.05;98.55
49489;SHT31;35382;51.484;11.476;2024-02-15T05:54:26;9.02;98.61
49489;SHT31;35382;51.484;11.476;2024-02-15T05:56:51;8.99;98.65
49489;SHT31;35382;51.484;11.476;2024-02-15T05:59:17;9.02;98.66
49489;SHT31;35382;51.484;11.476;2024-02-15T06:01:43;8.96;98.73
49489;SHT31;35382;51.484;11.476;2024-02-15T06:04:08;9.02;98.71
49489;SHT31;35382;51.484;11.476;2024-02-15T06:06:34;9.04;98.70
49489;SHT31;35382;51.484;11.476;2024-02-15T06:08:59;9.05;98.68
49489;SHT31;35382;51.484;11.476;2024-02-15T06:11:25;9.11;98.44
49489;SHT31;35382;51.484;11.476;2024-02-15T06:13:50;9.02;98.48
49489;SHT31;35382;51.484;11.476;2024-02-15T06:16:15;8.89;98.66
49489;SHT31;35382;51.484;11.476;2024-02-15T06:18:41;9.16;98.49
49489;SHT31;35382;51.484;11.476;2024-02-15T06:21:06;9.18;98.25
49489;SHT31;35382;51.484;11.476;2024-02-15T06:23:32;9.25;98.23
49489;SHT31;35382;51.484;11.476;2024-02-15T06:25:57;9.32;98.09
49489;SHT31;35382;51.484;11.476;2024-02-15T06:28:22;9.26;97.99
49489;SHT31;35382;51.484;11.476;2024-02-15T06:30:48;9.25;98.13
49489;SHT31;35382;51.484;11.476;2024-02-15T06:33:13;9.29;98.05
49489;SHT31;35382;51.484;11.476;2024-02-15T06:35:38;9.22;98.18
49489;SHT31;35382;51.484;11.476;2024-02-15T06:38:04;9.23;98.20
49489;SHT31;35382;51.484;11.476;2024-02-15T06:40:29;9.30;98.13
49489;SHT31;35382;51.484;11.476;2024-02-15T06:42:54;9.26;98.11
49489;SHT31;35382;51.484;11.476;2024-02-15T06:45:20;9.38;98.27
49489;SHT31;35382;51.484;11.476;2024-02-15T06:47:45;9.42;98.02
49489;SHT31;35382;51.484;11.476;2024-02-15T06:50:12;9.25;98.25
49489;SHT31;35382;51.484;11.476;2024-02-15T06:52:38;9.20;98.84
49489;SHT31;35382;51.484;11.476;2024-02-15T06:55:04;9.16;98.90
49489;SHT31;35382;51.484;11.476;2024-02-15T06:57:29;9.20;98.98
49489;SHT31;35382;51.484;11.476;2024-02-15T06:59:54;9.26;99.15
49489;SHT31;35382;51.484;11.476;2024-02-15T07:02:20;9.20;99.21
49489;SHT31;35382;51.484;11.476;2024-02-15T07:04:45;9.30;99.25
49489;SHT31;35382;51.484;11.476;2024-02-15T07:07:10;9.40;99.15
49489;SHT31;35382;51.484;11.476;2024-02-15T07:09:36;9.46;98.95
49489;SHT31;35382;51.484;11.476;2024-02-15T07:12:01;9.53;98.48
49489;SHT31;35382;51.484;11.476;2024-02-15T07:14:26;9.53;98.29
49489;SHT31;35382;51.484;11.476;2024-02-15T07:16:52;9.74;98.00
49489;SHT31;35382;51.484;11.476;2024-02-15T07:19:17;9.80;97.68
49489;SHT31;35382;51.484;11.476;2024-02-15T07:21:43;9.73;97.57
49489;SHT31;35382;51.484;11.476;2024-02-15T07:24:08;9.62;98.08
49489;SHT31;35382;51.484;11.476;2024-02-15T07:26:33;9.67;98.27
49489;SHT31;35382;51.484;11.476;2024-02-15T07:28:59;9.66;98.46
49489;SHT31;35382;51.484;11.476;2024-02-15T07:31:28;9.69;98.62
49489;SHT31;35382;51.484;11.476;2024-02-15T07:33:53;9.76;98.74
49489;SHT31;35382;51.484;11.476;2024-02-15T07:36:22;9.82;98.59
49489;SHT31;35382;51.484;11.476;2024-02-15T07:38:50;9.87;98.46
49489;SHT31;35382;51.484;11.476;2024-02-15T07:41:21;9.93;98.57
49489;SHT31;35382;51.484;11.476;2024-02-15T07:43:46;10.03;98.40
49489;SHT31;35382;51.484;11.476;2024-02-15T07:46:12;10.10;98.44
49489;SHT31;35382;51.484;11.476;2024-02-15T07:48:37;10.11;98.37
49489;SHT31;35382;51.484;11.476;2024-02-15T07:51:03;10.11;97.94
49489;SHT31;35382;51.484;11.476;2024-02-15T07:53:28;10.07;97.62
49489;SHT31;35382;51.484;11.476;2024-02-15T07:55:54;10.00;97.52
49489;SHT31;35382;51.484;11.476;2024-02-15T07:58:22;10.01;97.47
49489;SHT31;35382;51.484;11.476;2024-02-15T08:00:47;10.07;97.22
49489;SHT31;35382;51.484;11.476;2024-02-15T08:03:12;10.06;96.98
49489;SHT31;35382;51.484;11.476;2024-02-15T08:05:39;10.14;96.85
49489;SHT31;35382;51.484;11.476;2024-02-15T08:08:04;10.04;96.95
49489;SHT31;35382;51.484;11.476;2024-02-15T08:10:30;10.11;97.23
49489;SHT31;35382;51.484;11.476;2024-02-15T08:12:55;10.20;97.01
49489;SHT31;35382;51.484;11.476;2024-02-15T08:15:20;10.27;96.80
49489;SHT31;35382;51.484;11.476;2024-02-15T08:17:46;10.36;96.62
49489;SHT31;35382;51.484;11.476;2024-02-15T08:20:12;10.41;96.51
49489;SHT31;35382;51.484;11.476;2024-02-15T08:22:38;10.45;96.64
49489;SHT31;35382;51.484;11.476;2024-02-15T08:25:09;10.58;96.14
49489;SHT31;35382;51.484;11.476;2024-02-15T08:27:35;10.69;95.73
49489;SHT31;35382;51.484;11.476;2024-02-15T08:30:00;10.95;95.38
49489;SHT31;35382;51.484;11.476;2024-02-15T08:32:25;11.36;95.09
49489;SHT31;35382;51.484;11.476;2024-02-15T08:34:54;11.66;94.51
49489;SHT31;35382;51.484;11.476;2024-02-15T08:37:19;11.82;93.37
49489;SHT31;35382;51.484;11.476;2024-02-15T08:39:44;11.76;93.42
49489;SHT31;35382;51.484;11.476;2024-02-15T08:42:10;11.53;94.62
49489;SHT31;35382;51.484;11.476;2024-02-15T08:44:35;11.32;94.94
49489;SHT31;35382;51.484;11.476;2024-02-15T08:47:01;11.26;95.51
49489;SHT31;35382;51.484;11.476;2024-02-15T08:49:27;11.22;95.84
49489;SHT31;35382;51.484;11.476;2024-02-15T08:51:52;11.18;95.32
49489;SHT31;35382;51.484;11.476;2024-02-15T08:54:21;11.23;95.68
49489;SHT31;35382;51.484;11.476;2024-02-15T08:56:47;11.22;95.64
49489;SHT31;35382;51.484;11.476;2024-02-15T08:59:12;11.26;95.57
49489;SHT31;35382;51.484;11.476;2024-02-15T09:01:37;11.22;95.37
49489;SHT31;35382;51.484;11.476;2024-02-15T09:04:03;11.16;95.54
49489;SHT31;35382;51.484;11.476;2024-02-15T09:06:29;11.09;95.63
49489;SHT31;35382;51.484;11.476;2024-02-15T09:08:55;11.08;95.52
49489;SHT31;35382;51.484;11.476;2024-02-15T09:11:20;11.15;96.19
49489;SHT31;35382;51.484;11.476;2024-02-15T09:13:46;11.15;96.08
49489;SHT31;35382;51.484;11.476;2024-02-15T09:16:11;11.05;95.49
49489;SHT31;35382;51.484;11.476;2024-02-15T09:18:36;10.96;95.12
49489;SHT31;35382;51.484;11.476;2024-02-15T09:21:02;10.89;95.89
49489;SHT31;35382;51.484;11.476;2024-02-15T09:23:30;10.86;96.13
49489;SHT31;35382;51.484;11.476;2024-02-15T09:25:56;10.89;95.91
49489;SHT31;35382;51.484;11.476;2024-02-15T09:28:21;10.94;96.06
49489;SHT31;35382;51.484;11.476;2024-02-15T09:30:50;10.96;95.87
49489;SHT31;35382;51.484;11.476;2024-02-15T09:33:20;11.08;95.95
49489;SHT31;35382;51.484;11.476;2024-02-15T09:35:46;11.09;95.71
49489;SHT31;35382;51.484;11.476;2024-02-15T09:38:11;11.08;95.61
49489;SHT31;35382;51.484;11.476;2024-02-15T09:40:37;11.04;95.93
49489;SHT31;35382;51.484;11.476;2024-02-15T09:43:03;10.99;95.86
49489;SHT31;35382;51.484;11.476;2024-02-15T09:45:28;11.04;95.93
49489;SHT31;35382;51.484;11.476;2024-02-15T09:47:59;11.04;95.52
49489;SHT31;35382;51.484;11.476;2024-02-15T09:50:36;11.08;95.72
49489;SHT31;35382;51.484;11.476;2024-02-15T09:53:04;11.12;95.13
49489;SHT31;35382;51.484;11.476;2024-02-15T09:55:30;11.19;95.11
49489;SHT31;35382;51.484;11.476;2024-02-15T09:57:55;11.30;95.12
49489;SHT31;35382;51.484;11.476;2024-02-15T10:00:21;11.30;94.82
49489;SHT31;35382;51.484;11.476;2024-02-15T10:02:48;11.33;95.30
49489;SHT31;35382;51.484;11.476;2024-02-15T10:05:16;11.26;94.92
49489;SHT31;35382;51.484;11.476;2024-02-15T10:07:42;11.30;94.94
49489;SHT31;35382;51.484;11.476;2024-02-15T10:10:23;11.43;94.71
49489;SHT31;35382;51.484;11.476;2024-02-15T10:12:50;11.53;94.37
49489;SHT31;35382;51.484;11.476;2024-02-15T10:15:32;11.59;93.79
49489;SHT31;35382;51.484;11.476;2024-02-15T10:17:58;11.62;94.06
49489;SHT31;35382;51.484;11.476;2024-02-15T10:20:24;11.73;94.09
49489;SHT31;35382;51.484;11.476;2024-02-15T10:22:50;11.90;93.67
49489;SHT31;35382;51.484;11.476;2024-02-15T10:25:25;12.07;93.09
49489;SHT31;35382;51.484;11.476;2024-02-15T10:28:01;12.12;92.68
49489;SHT31;35382;51.484;11.476;2024-02-15T10:30:27;12.23;92.45
49489;SHT31;35382;51.484;11.476;2024-02-15T10:32:52;12.24;92.24
49489;SHT31;35382;51.484;11.476;2024-02-15T10:35:21;12.18;92.98
49489;SHT31;35382;51.484;11.476;2024-02-15T10:37:50;12.08;92.41
49489;SHT31;35382;51.484;11.476;2024-02-15T10:40:20;12.07;92.75
49489;SHT31;35382;51.484;11.476;2024-02-15T10:42:51;12.16;92.18
49489;SHT31;35382;51.484;11.476;2024-02-15T10:45:17;12.34;92.32
49489;SHT31;35382;51.484;11.476;2024-02-15T10:47:44;12.33;91.99
49489;SHT31;35382;51.484;11.476;2024-02-15T10:50:09;12.44;92.33
49489;SHT31;35382;51.484;11.476;2024-02-15T10:52:37;12.48;92.37
49489;SHT31;35382;51.484;11.476;2024-02-15T10:55:08;12.40;91.02
49489;SHT31;35382;51.484;11.476;2024-02-15T10:57:37;12.41;91.26
49489;SHT31;35382;51.484;11.476;2024-02-15T11:00:03;12.47;91.19
49489;SHT31;35382;51.484;11.476;2024-02-15T11:02:37;12.57;90.90
49489;SHT31;35382;51.484;11.476;2024-02-15T11:05:08;12.69;90.62
49489;SHT31;35382;51.484;11.476;2024-02-15T11:07:33;12.77;90.05
49489;SHT31;35382;51.484;11.476;2024-02-15T11:09:59;12.71;90.32
49489;SHT31;35382;51.484;11.476;2024-02-15T11:12:25;12.75;91.08
49489;SHT31;35382;51.484;11.476;2024-02-15T11:14:51;12.85;90.56
49489;SHT31;35382;51.484;11.476;2024-02-15T11:20:10;12.81;90.76
49489;SHT31;35382;51.484;11.476;2024-02-15T11:22:36;12.71;90.95
49489;SHT31;35382;51.484;11.476;2024-02-15T11:25:03;12.57;90.21
49489;SHT31;35382;51.484;11.476;2024-02-15T11:27:29;12.55;90.57
49489;SHT31;35382;51.484;11.476;2024-02-15T11:29:59;12.60;90.54
49489;SHT31;35382;51.484;11.476;2024-02-15T11:32:41;12.64;90.41
49489;SHT31;35382;51.484;11.476;2024-02-15T11:35:08;12.61;90.97
49489;SHT31;35382;51.484;11.476;2024-02-15T11:40:59;12.67;90.22
49489;SHT31;35382;51.484;11.476;2024-02-15T11:46:12;12.82;90.33
49489;SHT31;35382;51.484;11.476;2024-02-15T11:48:37;12.92;89.83
49489;SHT31;35382;51.484;11.476;2024-02-15T11:51:02;13.14;89.50
49489;SHT31;35382;51.484;11.476;2024-02-15T11:53:28;13.29;89.43
49489;SHT31;35382;51.484;11.476;2024-02-15T11:56:00;13.48;88.57
49489;SHT31;35382;51.484;11.476;2024-02-15T11:58:25;13.53;87.57
49489;SHT31;35382;51.484;11.476;2024-02-15T12:00:51;13.49;89.39
49489;SHT31;35382;51.484;11.476;2024-02-15T12:03:19;13.62;88.91
49489;SHT31;35382;51.484;11.476;2024-02-15T12:05:50;13.58;89.00
49489;SHT31;35382;51.484;11.476;2024-02-15T12:08:15;13.67;88.59
49489;SHT31;35382;51.484;11.476;2024-02-15T12:10:41;13.86;88.25
49489;SHT31;35382;51.484;11.476;2024-02-15T12:13:07;13.82;86.84
49489;SHT31;35382;51.484;11.476;2024-02-15T12:15:32;13.80;87.64
49489;SHT31;35382;51.484;11.476;2024-02-15T12:18:16;13.76;88.04
49489;SHT31;35382;51.484;11.476;2024-02-15T12:20:44;13.65;88.07
49489;SHT31;35382;51.484;11.476;2024-02-15T12:23:09;13.69;88.93
49489;SHT31;35382;51.484;11.476;2024-02-15T12:25:35;13.62;89.13
49489;SHT31;35382;51.484;11.476;2024-02-15T12:28:01;13.55;88.43
49489;SHT31;35382;51.484;11.476;2024-02-15T12:30:33;13.49;88.67
49489;SHT31;35382;51.484;11.476;2024-02-15T12:33:11;13.40;88.99
49489;SHT31;35382;51.484;11.476;2024-02-15T12:35:37;13.42;89.47
49489;SHT31;35382;51.484;11.476;2024-02-15T12:38:03;13.56;89.98
49489;SHT31;35382;51.484;11.476;2024-02-15T12:40:33;13.59;89.68
49489;SHT31;35382;51.484;11.476;2024-02-15T12:42:59;13.63;89.31
49489;SHT31;35382;51.484;11.476;2024-02-15T12:45:25;13.79;89.94
49489;SHT31;35382;51.484;11.476;2024-02-15T12:47:51;13.84;89.21
49489;SHT31;35382;51.484;11.476;2024-02-15T12:50:21;13.77;88.84
49489;SHT31;35382;51.484;11.476;2024-02-15T12:52:48;13.73;88.23
49489;SHT31;35382;51.484;11.476;2024-02-15T12:55:19;13.60;89.01
49489;SHT31;35382;51.484;11.476;2024-02-15T12:57:50;13.48;88.65
49489;SHT31;35382;51.484;11.476;2024-02-15T13:00:18;13.56;89.82
49489;SHT31;35382;51.484;11.476;2024-02-15T13:02:45;13.48;89.56
49489;SHT31;35382;51.484;11.476;2024-02-15T13:05:10;13.48;89.20
49489;SHT31;35382;51.484;11.476;2024-02-15T13:07:36;13.52;90.49
49489;SHT31;35382;51.484;11.476;2024-02-15T13:10:01;13.38;89.72
49489;SHT31;35382;51.484;11.476;2024-02-15T13:12:27;13.35;89.66
49489;SHT31;35382;51.484;11.476;2024-02-15T13:14:52;13.35;90.04
49489;SHT31;35382;51.484;11.476;2024-02-15T13:17:17;13.39;90.36
49489;SHT31;35382;51.484;11.476;2024-02-15T13:19:46;13.35;89.98
49489;SHT31;35382;51.484;11.476;2024-02-15T13:22:11;13.30;89.90
49489;SHT31;35382;51.484;11.476;2024-02-15T13:24:37;13.23;90.50
49489;SHT31;35382;51.484;11.476;2024-02-15T13:27:02;13.29;90.35
49489;SHT31;35382;51.484;11.476;2024-02-15T13:29:28;13.18;90.03
49489;SHT31;35382;51.484;11.476;2024-02-15T13:31:53;13.28;89.77
49489;SHT31;35382;51.484;11.476;2024-02-15T13:34:18;13.29;89.85
49489;SHT31;35382;51.484;11.476;2024-02-15T13:36:44;13.35;89.64
49489;SHT31;35382;51.484;11.476;2024-02-15T13:39:09;13.30;90.17
49489;SHT31;35382;51.484;11.476;2024-02-15T13:41:34;13.26;89.90
49489;SHT31;35382;51.484;11.476;2024-02-15T13:44:00;13.26;90.64
49489;SHT31;35382;51.484;11.476;2024-02-15T13:46:25;13.26;90.48
49489;SHT31;35382;51.484;11.476;2024-02-15T13:48:50;13.29;90.28
49489;SHT31;35382;51.484;11.476;2024-02-15T13:51:16;13.26;90.81
49489;SHT31;35382;51.484;11.476;2024-02-15T13:53:41;13.26;90.92
49489;SHT31;35382;51.484;11.476;2024-02-15T13:56:10;13.26;91.37
49489;SHT31;35382;51.484;11.476;2024-02-15T13:58:35;13.16;91.40
49489;SHT31;35382;51.484;11.476;2024-02-15T14:01:00;13.08;91.94
49489;SHT31;35382;51.484;11.476;2024-02-15T14:03:26;13.02;92.86
49489;SHT31;35382;51.484;11.476;2024-02-15T14:05:51;12.91;92.93
49489;SHT31;35382;51.484;11.476;2024-02-15T14:08:16;12.91;92.64
49489;SHT31;35382;51.484;11.476;2024-02-15T14:10:42;12.87;92.65
49489;SHT31;35382;51.484;11.476;2024-02-15T14:13:10;12.84;92.86
49489;SHT31;35382;51.484;11.476;2024-02-15T14:15:36;12.85;92.35
49489;SHT31;35382;51.484;11.476;2024-02-15T14:18:01;12.88;92.74
49489;SHT31;35382;51.484;11.476;2024-02-15T14:20:27;12.89;92.31
49489;SHT31;35382;51.484;11.476;2024-02-15T14:22:53;12.92;92.13
49489;SHT31;35382;51.484;11.476;2024-02-15T14:25:18;12.95;91.57
49489;SHT31;35382;51.484;11.476;2024-02-15T14:27:44;12.89;91.47
49489;SHT31;35382;51.484;11.476;2024-02-15T14:30:09;12.87;92.19
49489;SHT31;35382;51.484;11.476;2024-02-15T14:32:35;12.77;92.48
49489;SHT31;35382;51.484;11.476;2024-02-15T14:35:00;12.69;92.37
49489;SHT31;35382;51.484;11.476;2024-02-15T14:37:25;12.61;92.70
49489;SHT31;35382;51.484;11.476;2024-02-15T14:39:51;12.50;93.10
49489;SHT31;35382;51.484;11.476;2024-02-15T14:42:16;12.45;93.40
49489;SHT31;35382;51.484;11.476;2024-02-15T14:44:41;12.40;93.36
49489;SHT31;35382;51.484;11.476;2024-02-15T14:47:07;12.34;93.85
49489;SHT31;35382;51.484;11.476;2024-02-15T14:49:32;12.30;93.85
49489;SHT31;35382;51.484;11.476;2024-02-15T14:51:57;12.24;94.32
49489;SHT31;35382;51.484;11.476;2024-02-15T14:54:23;12.18;94.87
49489;SHT31;35382;51.484;11.476;2024-02-15T14:56:48;12.10;95.15
49489;SHT31;35382;51.484;11.476;2024-02-15T14:59:13;12.07;95.78
49489;SHT31;35382;51.484;11.476;2024-02-15T15:01:39;11.97;96.07
49489;SHT31;35382;51.484;11.476;2024-02-15T15:04:04;11.93;96.40
49489;SHT31;35382;51.484;11.476;2024-02-15T15:06:29;11.86;96.44
49489;SHT31;35382;51.484;11.476;2024-02-15T15:08:55;11.80;96.61
49489;SHT31;35382;51.484;11.476;2024-02-15T15:11:20;11.77;96.64
49489;SHT31;35382;51.484;11.476;2024-02-15T15:13:46;11.72;96.82
49489;SHT31;35382;51.484;11.476;2024-02-15T15:16:11;11.69;96.85
49489;SHT31;35382;51.484;11.476;2024-02-15T15:18:37;11.69;97.10
49489;SHT31;35382;51.484;11.476;2024-02-15T15:21:03;11.60;97.40
49489;SHT31;35382;51.484;11.476;2024-02-15T15:23:29;11.63;97.46
49489;SHT31;35382;51.484;11.476;2024-02-15T15:25:54;11.60;97.29